sensor_id;sensor_type;location;lat;lon;timestamp;pressure;altitude;pressure_sealevel;temperature;humidity
73821;BME280;62150;43.582;1.456;2023-04-03T05:56:15;100565.06;;;14.26;100.00
73821;BME280;62150;43.582;1.456;2023-04-03T05:58:42;100570.94;;;15.17;100.00
73821;BME280;62150;43.582;1.456;2023-04-03T06:01:10;100565.63;;;14.51;100.00
73821;BME280;62150;43.582;1.456;2023-04-03T06:03:37;100565.63;;;15.36;100.00
73821;BME280;62150;43.582;1.456;2023-04-03T06:06:06;100573.84;;;14.77;100.00
73821;BME280;62150;43.582;1.456;2023-04-03T06:08:34;100562.47;;;14.26;100.00
73821;BME280;62150;43.582;1.456;2023-04-03T06:11:01;100566.31;;;14.72;100.00
73821;BME280;62150;43.582;1.456;2023-04-03T06:13:30;100571.22;;;14.42;100.00
73821;BME280;62150;43.582;1.456;2023-04-03T06:15:59;100576.41;;;14.94;100.00
73821;BME280;62150;43.582;1.456;2023-04-03T06:18:27;100580.97;;;14.54;100.00
73821;BME280;62150;43.582;1.456;2023-04-03T06:20:54;100583.25;;;14.05;100.00
73821;BME280;62150;43.582;1.456;2023-04-03T06:23:22;100582.00;;;15.36;100.00
73821;BME280;62150;43.582;1.456;2023-04-03T06:25:49;100582.13;;;14.83;100.00
73821;BME280;62150;43.582;1.456;2023-04-03T06:28:17;100581.06;;;15.04;100.00
73821;BME280;62150;43.582;1.456;2023-04-03T06:30:46;100580.47;;;14.10;100.00
73821;BME280;62150;43.582;1.456;2023-04-03T06:33:14;100588.53;;;15.43;100.00
73821;BME280;62150;43.582;1.456;2023-04-03T06:35:41;100595.47;;;14.57;100.00
73821;BME280;62150;43.582;1.456;2023-04-03T06:38:09;100592.47;;;15.51;100.00
73821;BME280;62150;43.582;1.456;2023-04-03T06:40:37;100588.66;;;14.90;100.00
73821;BME280;62150;43.582;1.456;2023-04-03T06:43:05;100584.94;;;15.13;100.00
73821;BME280;62150;43.582;1.456;2023-04-03T06:45:33;100585.16;;;14.74;100.00
73821;BME280;62150;43.582;1.456;2023-04-03T06:48:02;100584.88;;;15.81;100.00
73821;BME280;62150;43.582;1.456;2023-04-03T06:50:30;100586.31;;;14.68;100.00
73821;BME280;62150;43.582;1.456;2023-04-03T06:52:57;100584.03;;;14.80;100.00
73821;BME280;62150;43.582;1.456;2023-04-03T06:55:27;100582.16;;;14.28;100.00
73821;BME280;62150;43.582;1.456;2023-04-03T06:57:54;100580.06;;;14.72;100.00
73821;BME280;62150;43.582;1.456;2023-04-03T07:00:22;100582.75;;;14.88;100.00
73821;BME280;62150;43.582;1.456;2023-04-03T07:02:50;100582.41;;;15.12;100.00
73821;BME280;62150;43.582;1.456;2023-04-03T07:05:19;100580.28;;;15.20;100.00
73821;BME280;62150;43.582;1.456;2023-04-03T07:07:46;100592.19;;;15.57;100.00
73821;BME280;62150;43.582;1.456;2023-04-03T07:10:16;100600.53;;;14.94;100.00
73821;BME280;62150;43.582;1.456;2023-04-03T07:12:43;100593.59;;;14.05;100.00
73821;BME280;62150;43.582;1.456;2023-04-03T07:15:11;100594.19;;;14.65;100.00
73821;BME280;62150;43.582;1.456;2023-04-03T07:17:40;100586.91;;;15.08;100.00
73821;BME280;62150;43.582;1.456;2023-04-03T07:20:08;100594.25;;;15.33;100.00
73821;BME280;62150;43.582;1.456;2023-04-03T07:22:38;100587.13;;;15.03;100.00
73821;BME280;62150;43.582;1.456;2023-04-03T07:25:06;100591.34;;;14.89;100.00
73821;BME280;62150;43.582;1.456;2023-04-03T07:27:34;100591.84;;;14.95;100.00
73821;BME280;62150;43.582;1.456;2023-04-03T07:30:02;100595.78;;;14.32;100.00
73821;BME280;62150;43.582;1.456;2023-04-03T07:32:29;100588.28;;;14.81;100.00
73821;BME280;62150;43.582;1.456;2023-04-03T07:34:57;100579.75;;;14.44;100.00
73821;BME280;62150;43.582;1.456;2023-04-03T07:37:24;100577.75;;;16.00;100.00
73821;BME280;62150;43.582;1.456;2023-04-03T07:39:54;100582.28;;;15.81;100.00
73821;BME280;62150;43.582;1.456;2023-04-03T07:42:23;100570.94;;;15.00;100.00
73821;BME280;62150;43.582;1.456;2023-04-03T07:44:50;100572.75;;;14.46;100.00
73821;BME280;62150;43.582;1.456;2023-04-03T07:47:18;100571.59;;;14.16;100.00
73821;BME280;62150;43.582;1.456;2023-04-03T07:49:46;100568.44;;;14.81;100.00
73821;BME280;62150;43.582;1.456;2023-04-03T07:52:14;100573.22;;;15.06;100.00
73821;BME280;62150;43.582;1.456;2023-04-03T07:54:42;100576.63;;;15.06;100.00
73821;BME280;62150;43.582;1.456;2023-04-03T07:57:11;100579.09;;;15.25;100.00
73821;BME280;62150;43.582;1.456;2023-04-03T07:59:38;100570.50;;;14.38;100.00
73821;BME280;62150;43.582;1.456;2023-04-03T08:02:09;100581.44;;;14.80;100.00
73821;BME280;62150;43.582;1.456;2023-04-03T08:04:37;100588.53;;;15.43;100.00
73821;BME280;62150;43.582;1.456;2023-04-03T08:07:05;100586.44;;;14.65;100.00
73821;BME280;62150;43.582;1.456;2023-04-03T08:09:32;100582.22;;;14.82;100.00
73821;BME280;62150;43.582;1.456;2023-04-03T08:12:00;100579.59;;;14.64;100.00
73821;BME280;62150;43.582;1.456;2023-04-03T08:14:30;100590.94;;;15.64;100.00
73821;BME280;62150;43.582;1.456;2023-04-03T08:17:01;100588.88;;;15.70;100.00
73821;BME280;62150;43.582;1.456;2023-04-03T08:19:30;100583.34;;;15.43;100.00
73821;BME280;62150;43.582;1.456;2023-04-03T08:21:58;100583.88;;;15.99;100.00
73821;BME280;62150;43.582;1.456;2023-04-03T08:24:26;100586.09;;;15.40;100.00
73821;BME280;62150;43.582;1.456;2023-04-03T08:26:54;100585.88;;;15.78;100.00
73821;BME280;62150;43.582;1.456;2023-04-03T08:29:22;100590.59;;;15.37;100.00
73821;BME280;62150;43.582;1.456;2023-04-03T08:31:51;100590.63;;;15.02;100.00
73821;BME280;62150;43.582;1.456;2023-04-03T08:34:19;100586.22;;;16.19;100.00
73821;BME280;62150;43.582;1.456;2023-04-03T08:36:47;100578.31;;;16.52;100.00
73821;BME280;62150;43.582;1.456;2023-04-03T08:39:14;100582.97;;;16.16;100.00
73821;BME280;62150;43.582;1.456;2023-04-03T08:41:43;100575.44;;;16.72;100.00
73821;BME280;62150;43.582;1.456;2023-04-03T08:44:20;100565.63;;;16.32;100.00
73821;BME280;62150;43.582;1.456;2023-04-03T08:47:13;100577.97;;;15.31;100.00
73821;BME280;62150;43.582;1.456;2023-04-03T08:49:47;100573.75;;;16.71;100.00
73821;BME280;62150;43.582;1.456;2023-04-03T08:52:19;100555.91;;;16.81;100.00
73821;BME280;62150;43.582;1.456;2023-04-03T08:54:52;100549.09;;;16.19;100.00
73821;BME280;62150;43.582;1.456;2023-04-03T08:57:28;100542.44;;;16.74;100.00
73821;BME280;62150;43.582;1.456;2023-04-03T08:59:58;100544.22;;;17.32;100.00
73821;BME280;62150;43.582;1.456;2023-04-03T09:02:34;100550.66;;;17.11;100.00
73821;BME280;62150;43.582;1.456;2023-04-03T09:05:12;100550.78;;;15.88;100.00
73821;BME280;62150;43.582;1.456;2023-04-03T09:07:44;100545.78;;;16.77;100.00
73821;BME280;62150;43.582;1.456;2023-04-03T09:10:14;100549.09;;;15.71;100.00
73821;BME280;62150;43.582;1.456;2023-04-03T09:12:46;100553.63;;;17.05;100.00
73821;BME280;62150;43.582;1.456;2023-04-03T09:15:20;100553.66;;;16.75;100.00
73821;BME280;62150;43.582;1.456;2023-04-03T09:17:58;100548.44;;;17.05;100.00
73821;BME280;62150;43.582;1.456;2023-04-03T09:20:36;100540.88;;;17.30;98.06
73821;BME280;62150;43.582;1.456;2023-04-03T09:23:17;100542.09;;;16.81;100.00
73821;BME280;62150;43.582;1.456;2023-04-03T09:25:45;100545.84;;;17.48;94.72
73821;BME280;62150;43.582;1.456;2023-04-03T09:28:13;100543.75;;;16.22;100.00
73821;BME280;62150;43.582;1.456;2023-04-03T09:30:41;100542.53;;;17.17;98.25
73821;BME280;62150;43.582;1.456;2023-04-03T09:33:11;100546.84;;;16.58;99.09
73821;BME280;62150;43.582;1.456;2023-04-03T09:35:41;100541.41;;;17.21;96.89
73821;BME280;62150;43.582;1.456;2023-04-03T09:38:19;100535.69;;;16.72;94.15
73821;BME280;62150;43.582;1.456;2023-04-03T09:40:48;100532.84;;;16.91;95.96
73821;BME280;62150;43.582;1.456;2023-04-03T09:43:25;100522.53;;;16.75;96.82
73821;BME280;62150;43.582;1.456;2023-04-03T09:45:55;100531.81;;;16.33;98.98
73821;BME280;62150;43.582;1.456;2023-04-03T09:48:25;100536.78;;;16.68;96.69
73821;BME280;62150;43.582;1.456;2023-04-03T09:51:00;100533.25;;;17.13;93.01
73821;BME280;62150;43.582;1.456;2023-04-03T09:53:32;100531.19;;;17.75;90.01
73821;BME280;62150;43.582;1.456;2023-04-03T09:56:03;100527.63;;;16.47;93.85
73821;BME280;62150;43.582;1.456;2023-04-03T09:58:33;100529.25;;;17.07;92.65
73821;BME280;62150;43.582;1.456;2023-04-03T10:01:04;100533.59;;;16.93;92.18
73821;BME280;62150;43.582;1.456;2023-04-03T10:03:35;100518.13;;;18.43;81.13
73821;BME280;62150;43.582;1.456;2023-04-03T10:06:03;100509.63;;;17.87;85.92
73821;BME280;62150;43.582;1.456;2023-04-03T10:08:34;100509.69;;;17.16;93.94
73821;BME280;62150;43.582;1.456;2023-04-03T10:11:14;100496.16;;;17.95;85.51
73821;BME280;62150;43.582;1.456;2023-04-03T10:13:54;100504.09;;;17.51;79.70
73821;BME280;62150;43.582;1.456;2023-04-03T10:16:28;100502.53;;;17.34;80.44
73821;BME280;62150;43.582;1.456;2023-04-03T10:22:00;100493.38;;;18.50;77.15
73821;BME280;62150;43.582;1.456;2023-04-03T10:24:36;100483.84;;;17.84;76.76
73821;BME280;62150;43.582;1.456;2023-04-03T10:27:16;100484.91;;;17.53;84.90
73821;BME280;62150;43.582;1.456;2023-04-03T10:29:51;100482.09;;;17.70;84.59
73821;BME280;62150;43.582;1.456;2023-04-03T10:32:44;100485.72;;;17.54;81.56
73821;BME280;62150;43.582;1.456;2023-04-03T10:35:22;100475.09;;;17.85;76.66
73821;BME280;62150;43.582;1.456;2023-04-03T10:38:01;100485.34;;;18.28;82.28
73821;BME280;62150;43.582;1.456;2023-04-03T10:40:37;100485.59;;;18.11;72.67
73821;BME280;62150;43.582;1.456;2023-04-03T10:43:13;100481.66;;;18.18;70.55
73821;BME280;62150;43.582;1.456;2023-04-03T10:45:57;100484.72;;;17.42;73.58
73821;BME280;62150;43.582;1.456;2023-04-03T10:48:41;100486.19;;;17.60;74.21
73821;BME280;62150;43.582;1.456;2023-04-03T10:51:25;100476.19;;;16.69;79.76
73821;BME280;62150;43.582;1.456;2023-04-03T10:53:58;100470.91;;;17.41;76.50
73821;BME280;62150;43.582;1.456;2023-04-03T10:56:31;100470.16;;;17.54;76.28
73821;BME280;62150;43.582;1.456;2023-04-03T10:59:13;100467.28;;;17.44;74.88
73821;BME280;62150;43.582;1.456;2023-04-03T11:01:45;100453.75;;;17.80;74.92
73821;BME280;62150;43.582;1.456;2023-04-03T11:04:14;100467.66;;;16.67;77.10
73821;BME280;62150;43.582;1.456;2023-04-03T11:06:46;100467.03;;;16.48;77.03
73821;BME280;62150;43.582;1.456;2023-04-03T11:09:21;100460.75;;;17.10;71.07
73821;BME280;62150;43.582;1.456;2023-04-03T11:11:53;100456.47;;;17.79;62.71
73821;BME280;62150;43.582;1.456;2023-04-03T11:14:26;100453.06;;;17.64;60.20
73821;BME280;62150;43.582;1.456;2023-04-03T11:17:05;100449.38;;;17.39;61.38
73821;BME280;62150;43.582;1.456;2023-04-03T11:19:41;100448.38;;;16.71;62.78
73821;BME280;62150;43.582;1.456;2023-04-03T11:22:20;100433.00;;;19.21;55.30
73821;BME280;62150;43.582;1.456;2023-04-03T11:24:57;100429.25;;;17.84;61.49
73821;BME280;62150;43.582;1.456;2023-04-03T11:27:28;100434.59;;;16.70;72.32
73821;BME280;62150;43.582;1.456;2023-04-03T11:30:00;100433.19;;;16.21;82.17
73821;BME280;62150;43.582;1.456;2023-04-03T11:32:48;100438.63;;;15.86;82.37
73821;BME280;62150;43.582;1.456;2023-04-03T11:35:20;100432.00;;;16.70;78.50
73821;BME280;62150;43.582;1.456;2023-04-03T11:37:51;100434.97;;;16.34;77.20
73821;BME280;62150;43.582;1.456;2023-04-03T11:40:23;100421.75;;;17.38;70.16
73821;BME280;62150;43.582;1.456;2023-04-03T11:42:55;100419.09;;;16.69;77.72
73821;BME280;62150;43.582;1.456;2023-04-03T11:45:37;100418.38;;;16.81;75.88
73821;BME280;62150;43.582;1.456;2023-04-03T11:48:09;100404.22;;;17.42;72.48
73821;BME280;62150;43.582;1.456;2023-04-03T11:50:55;100407.41;;;18.26;64.89
73821;BME280;62150;43.582;1.456;2023-04-03T11:53:32;100407.78;;;18.60;59.30
73821;BME280;62150;43.582;1.456;2023-04-03T11:59:21;100397.69;;;17.22;68.54
73821;BME280;62150;43.582;1.456;2023-04-03T12:01:50;100409.97;;;16.92;68.90
73821;BME280;62150;43.582;1.456;2023-04-03T12:04:19;100392.00;;;18.23;61.10
73821;BME280;62150;43.582;1.456;2023-04-03T12:09:59;100388.78;;;18.96;56.32
73821;BME280;62150;43.582;1.456;2023-04-03T12:12:34;100381.66;;;18.61;58.73
73821;BME280;62150;43.582;1.456;2023-04-03T12:15:24;100375.16;;;18.80;59.84
73821;BME280;62150;43.582;1.456;2023-04-03T12:17:53;100379.63;;;18.78;57.68
73821;BME280;62150;43.582;1.456;2023-04-03T12:20:54;100374.31;;;17.76;57.00
73821;BME280;62150;43.582;1.456;2023-04-03T12:23:33;100374.06;;;17.93;61.37
73821;BME280;62150;43.582;1.456;2023-04-03T12:26:20;100364.22;;;18.11;58.23
73821;BME280;62150;43.582;1.456;2023-04-03T12:28:50;100369.97;;;18.29;52.28
73821;BME280;62150;43.582;1.456;2023-04-03T12:31:20;100353.38;;;18.04;57.97
73821;BME280;62150;43.582;1.456;2023-04-03T12:34:10;100355.69;;;18.22;57.69
73821;BME280;62150;43.582;1.456;2023-04-03T12:36:46;100345.34;;;18.96;56.34
73821;BME280;62150;43.582;1.456;2023-04-03T12:39:33;100338.19;;;18.87;56.58
73821;BME280;62150;43.582;1.456;2023-04-03T12:42:18;100345.59;;;18.55;58.50
73821;BME280;62150;43.582;1.456;2023-04-03T12:44:56;100344.16;;;18.26;61.33
73821;BME280;62150;43.582;1.456;2023-04-03T12:47:31;100341.66;;;17.99;67.44
73821;BME280;62150;43.582;1.456;2023-04-03T12:50:03;100335.22;;;19.76;54.16
73821;BME280;62150;43.582;1.456;2023-04-03T12:52:38;100336.84;;;18.56;64.24
73821;BME280;62150;43.582;1.456;2023-04-03T12:55:15;100326.81;;;19.25;58.73
73821;BME280;62150;43.582;1.456;2023-04-03T12:57:45;100332.91;;;18.51;65.60
73821;BME280;62150;43.582;1.456;2023-04-03T13:00:22;100333.34;;;18.19;66.86
73821;BME280;62150;43.582;1.456;2023-04-03T13:02:53;100335.59;;;18.11;64.35
73821;BME280;62150;43.582;1.456;2023-04-03T13:05:22;100330.53;;;17.97;63.76
73821;BME280;62150;43.582;1.456;2023-04-03T13:07:59;100319.72;;;18.66;59.66
73821;BME280;62150;43.582;1.456;2023-04-03T13:10:28;100313.69;;;19.02;54.92
73821;BME280;62150;43.582;1.456;2023-04-03T13:12:58;100306.00;;;18.88;52.36
73821;BME280;62150;43.582;1.456;2023-04-03T13:15:41;100307.84;;;18.99;51.17
73821;BME280;62150;43.582;1.456;2023-04-03T13:18:22;100301.69;;;19.48;49.77
73821;BME280;62150;43.582;1.456;2023-04-03T13:20:51;100311.47;;;18.09;54.94
73821;BME280;62150;43.582;1.456;2023-04-03T13:23:20;100293.84;;;18.76;54.72
73821;BME280;62150;43.582;1.456;2023-04-03T13:25:49;100291.34;;;19.59;52.56
73821;BME280;62150;43.582;1.456;2023-04-03T13:28:22;100287.22;;;19.67;51.30
73821;BME280;62150;43.582;1.456;2023-04-03T13:31:01;100294.94;;;18.23;59.16
73821;BME280;62150;43.582;1.456;2023-04-03T13:33:32;100293.75;;;19.49;52.96
73821;BME280;62150;43.582;1.456;2023-04-03T13:36:05;100298.97;;;18.52;53.19
73821;BME280;62150;43.582;1.456;2023-04-03T13:38:35;100277.94;;;18.55;53.65
73821;BME280;62150;43.582;1.456;2023-04-03T13:41:20;100277.78;;;18.82;53.09
73821;BME280;62150;43.582;1.456;2023-04-03T13:43:50;100272.66;;;19.76;50.83
73821;BME280;62150;43.582;1.456;2023-04-03T13:46:25;100270.13;;;19.28;51.06
73821;BME280;62150;43.582;1.456;2023-04-03T13:48:55;100262.81;;;19.33;51.26
73821;BME280;62150;43.582;1.456;2023-04-03T13:51:25;100263.81;;;20.12;48.09
73821;BME280;62150;43.582;1.456;2023-04-03T13:53:56;100259.31;;;18.98;51.91
73821;BME280;62150;43.582;1.456;2023-04-03T13:56:31;100253.22;;;19.45;51.92
73821;BME280;62150;43.582;1.456;2023-04-03T13:59:05;100253.44;;;19.07;52.36
73821;BME280;62150;43.582;1.456;2023-04-03T14:01:39;100252.78;;;19.75;50.25
73821;BME280;62150;43.582;1.456;2023-04-03T14:04:14;100261.31;;;18.45;54.74
73821;BME280;62150;43.582;1.456;2023-04-03T14:06:42;100243.84;;;18.60;56.08
73821;BME280;62150;43.582;1.456;2023-04-03T14:09:09;100246.13;;;19.36;55.25
73821;BME280;62150;43.582;1.456;2023-04-03T14:11:37;100241.34;;;18.82;53.75
73821;BME280;62150;43.582;1.456;2023-04-03T14:14:14;100236.94;;;19.54;55.18
73821;BME280;62150;43.582;1.456;2023-04-03T14:16:45;100242.63;;;18.77;59.29
73821;BME280;62150;43.582;1.456;2023-04-03T14:19:19;100236.69;;;18.74;61.25
73821;BME280;62150;43.582;1.456;2023-04-03T14:21:48;100240.84;;;18.77;60.77
73821;BME280;62150;43.582;1.456;2023-04-03T14:24:17;100233.47;;;18.34;62.39
73821;BME280;62150;43.582;1.456;2023-04-03T14:26:47;100233.06;;;17.77;64.07
73821;BME280;62150;43.582;1.456;2023-04-03T14:29:16;100224.75;;;18.96;55.47
73821;BME280;62150;43.582;1.456;2023-04-03T14:31:45;100236.38;;;18.04;62.09
73821;BME280;62150;43.582;1.456;2023-04-03T14:34:14;100227.19;;;17.48;65.93
73821;BME280;62150;43.582;1.456;2023-04-03T14:36:43;100220.50;;;18.58;60.91
73821;BME280;62150;43.582;1.456;2023-04-03T14:39:17;100217.84;;;17.46;68.17
73821;BME280;62150;43.582;1.456;2023-04-03T14:41:46;100208.16;;;19.56;58.02
73821;BME280;62150;43.582;1.456;2023-04-03T14:44:15;100205.94;;;18.68;61.22
73821;BME280;62150;43.582;1.456;2023-04-03T14:46:44;100195.91;;;19.34;54.83
73821;BME280;62150;43.582;1.456;2023-04-03T14:49:15;100202.19;;;18.84;60.77
73821;BME280;62150;43.582;1.456;2023-04-03T14:51:45;100198.59;;;18.97;58.58
73821;BME280;62150;43.582;1.456;2023-04-03T14:54:14;100193.63;;;19.29;57.70
73821;BME280;62150;43.582;1.456;2023-04-03T14:56:42;100202.19;;;17.85;67.22
73821;BME280;62150;43.582;1.456;2023-04-03T14:59:11;100195.25;;;17.98;68.10
73821;BME280;62150;43.582;1.456;2023-04-03T15:01:40;100192.16;;;18.30;61.00
73821;BME280;62150;43.582;1.456;2023-04-03T15:04:11;100184.38;;;18.04;60.80
73821;BME280;62150;43.582;1.456;2023-04-03T15:06:39;100188.56;;;18.80;57.03
73821;BME280;62150;43.582;1.456;2023-04-03T15:09:15;100173.84;;;19.73;53.81
73821;BME280;62150;43.582;1.456;2023-04-03T15:11:45;100183.00;;;19.32;57.46
73821;BME280;62150;43.582;1.456;2023-04-03T15:14:13;100170.34;;;19.39;51.53
73821;BME280;62150;43.582;1.456;2023-04-03T15:16:42;100171.91;;;18.46;54.60
73821;BME280;62150;43.582;1.456;2023-04-03T15:19:10;100167.22;;;19.69;52.99
73821;BME280;62150;43.582;1.456;2023-04-03T15:21:38;100164.22;;;18.81;58.50
73821;BME280;62150;43.582;1.456;2023-04-03T15:24:06;100170.88;;;18.61;58.63
73821;BME280;62150;43.582;1.456;2023-04-03T15:26:34;100161.81;;;18.78;58.08
73821;BME280;62150;43.582;1.456;2023-04-03T15:29:02;100155.88;;;19.35;53.26
73821;BME280;62150;43.582;1.456;2023-04-03T15:31:30;100155.72;;;18.90;55.65
73821;BME280;62150;43.582;1.456;2023-04-03T15:33:59;100164.75;;;18.73;55.24
73821;BME280;62150;43.582;1.456;2023-04-03T15:36:26;100147.84;;;19.38;54.66
73821;BME280;62150;43.582;1.456;2023-04-03T15:38:54;100155.47;;;18.09;58.51
73821;BME280;62150;43.582;1.456;2023-04-03T15:41:21;100150.91;;;19.32;54.30
73821;BME280;62150;43.582;1.456;2023-04-03T15:43:49;100140.00;;;18.92;57.00
73821;BME280;62150;43.582;1.456;2023-04-03T15:46:16;100137.66;;;19.00;53.67
73821;BME280;62150;43.582;1.456;2023-04-03T15:48:44;100131.75;;;18.98;50.87
73821;BME280;62150;43.582;1.456;2023-04-03T15:51:14;100144.81;;;19.20;52.88
73821;BME280;62150;43.582;1.456;2023-04-03T15:53:41;100133.25;;;19.47;52.82
73821;BME280;62150;43.582;1.456;2023-04-03T15:56:09;100132.44;;;19.46;53.22
73821;BME280;62150;43.582;1.456;2023-04-03T15:58:38;100135.88;;;19.47;53.52
73821;BME280;62150;43.582;1.456;2023-04-03T16:01:09;100133.41;;;20.66;49.60
73821;BME280;62150;43.582;1.456;2023-04-03T16:03:39;100130.31;;;18.94;55.89
73821;BME280;62150;43.582;1.456;2023-04-03T16:06:13;100133.22;;;19.24;55.01
73821;BME280;62150;43.582;1.456;2023-04-03T16:08:41;100129.78;;;19.24;55.91
73821;BME280;62150;43.582;1.456;2023-04-03T16:11:08;100134.88;;;18.42;58.98
73821;BME280;62150;43.582;1.456;2023-04-03T16:13:36;100136.22;;;18.61;59.05
73821;BME280;62150;43.582;1.456;2023-04-03T16:16:04;100131.41;;;19.60;53.01
73821;BME280;62150;43.582;1.456;2023-04-03T16:18:32;100128.03;;;19.24;52.00
73821;BME280;62150;43.582;1.456;2023-04-03T16:21:01;100124.66;;;19.00;52.83
73821;BME280;62150;43.582;1.456;2023-04-03T16:23:30;100116.25;;;19.65;52.30
73821;BME280;62150;43.582;1.456;2023-04-03T16:25:58;100129.78;;;18.41;56.27
73821;BME280;62150;43.582;1.456;2023-04-03T16:28:25;100124.38;;;18.44;55.06
73821;BME280;62150;43.582;1.456;2023-04-03T16:30:53;100120.34;;;18.88;52.61
73821;BME280;62150;43.582;1.456;2023-04-03T16:33:21;100121.16;;;18.40;54.64
73821;BME280;62150;43.582;1.456;2023-04-03T16:35:48;100124.06;;;20.85;46.80
73821;BME280;62150;43.582;1.456;2023-04-03T16:38:16;100123.13;;;19.99;47.57
73821;BME280;62150;43.582;1.456;2023-04-03T16:40:46;100121.72;;;18.81;48.96
73821;BME280;62150;43.582;1.456;2023-04-03T16:43:14;100114.78;;;19.50;48.53
73821;BME280;62150;43.582;1.456;2023-04-03T16:45:42;100113.16;;;19.82;47.18
73821;BME280;62150;43.582;1.456;2023-04-03T16:48:10;100111.63;;;20.02;46.50
73821;BME280;62150;43.582;1.456;2023-04-03T16:50:37;100114.69;;;19.85;46.99
73821;BME280;62150;43.582;1.456;2023-04-03T16:53:05;100112.47;;;20.46;47.35
73821;BME280;62150;43.582;1.456;2023-04-03T16:55:35;100111.25;;;20.06;46.88
73821;BME280;62150;43.582;1.456;2023-04-03T16:58:04;100112.19;;;19.38;50.96
73821;BME280;62150;43.582;1.456;2023-04-03T17:00:32;100109.97;;;18.51;52.94
73821;BME280;62150;43.582;1.456;2023-04-03T17:03:00;100101.16;;;19.24;52.04
73821;BME280;62150;43.582;1.456;2023-04-03T17:05:27;100101.59;;;20.40;49.77
73821;BME280;62150;43.582;1.456;2023-04-03T17:07:55;100094.31;;;20.55;47.40
73821;BME280;62150;43.582;1.456;2023-04-03T17:10:22;100095.50;;;20.51;47.39
73821;BME280;62150;43.582;1.456;2023-04-03T17:12:50;100098.56;;;19.35;53.16
73821;BME280;62150;43.582;1.456;2023-04-03T17:15:19;100100.44;;;20.65;49.13
73821;BME280;62150;43.582;1.456;2023-04-03T17:17:47;100095.06;;;20.35;47.23
73821;BME280;62150;43.582;1.456;2023-04-03T17:20:15;100087.22;;;19.92;46.47
73821;BME280;62150;43.582;1.456;2023-04-03T17:22:42;100091.41;;;20.69;43.49
73821;BME280;62150;43.582;1.456;2023-04-03T17:25:11;100087.25;;;20.88;44.38
73821;BME280;62150;43.582;1.456;2023-04-03T17:27:39;100082.72;;;20.37;44.45
73821;BME280;62150;43.582;1.456;2023-04-03T17:30:07;100085.34;;;19.60;45.71
73821;BME280;62150;43.582;1.456;2023-04-03T17:32:37;100077.41;;;19.73;46.40
73821;BME280;62150;43.582;1.456;2023-04-03T17:35:05;100082.97;;;20.34;45.60
73821;BME280;62150;43.582;1.456;2023-04-03T17:37:33;100075.47;;;20.08;46.45
73821;BME280;62150;43.582;1.456;2023-04-03T17:40:00;100082.97;;;19.68;46.75
73821;BME280;62150;43.582;1.456;2023-04-03T17:42:28;100088.53;;;19.75;47.72
73821;BME280;62150;43.582;1.456;2023-04-03T17:44:56;100097.53;;;18.43;53.21
73821;BME280;62150;43.582;1.456;2023-04-03T17:47:26;100083.34;;;19.06;56.30
73821;BME280;62150;43.582;1.456;2023-04-03T17:49:54;100082.16;;;19.11;55.36
73821;BME280;62150;43.582;1.456;2023-04-03T17:52:22;100077.69;;;19.24;54.69
73821;BME280;62150;43.582;1.456;2023-04-03T17:54:53;100076.88;;;19.46;52.58
73821;BME280;62150;43.582;1.456;2023-04-03T17:57:20;100082.56;;;18.11;61.13
73821;BME280;62150;43.582;1.456;2023-04-03T17:59:48;100078.44;;;18.32;60.46
73821;BME280;62150;43.582;1.456;2023-04-03T18:02:16;100078.53;;;18.67;59.53
73821;BME280;62150;43.582;1.456;2023-04-03T18:04:43;100074.59;;;18.72;58.32
73821;BME280;62150;43.582;1.456;2023-04-03T18:07:12;100070.06;;;17.79;62.27
73821;BME280;62150;43.582;1.456;2023-04-03T18:09:40;100069.00;;;17.94;65.10
73821;BME280;62150;43.582;1.456;2023-04-03T18:12:08;100063.75;;;17.70;66.45
73821;BME280;62150;43.582;1.456;2023-04-03T18:14:37;100064.00;;;17.29;64.97
73821;BME280;62150;43.582;1.456;2023-04-03T18:17:06;100066.41;;;17.94;61.92
73821;BME280;62150;43.582;1.456;2023-04-03T18:19:34;100062.69;;;18.22;59.69
73821;BME280;62150;43.582;1.456;2023-04-03T18:22:03;100062.78;;;18.21;58.05
73821;BME280;62150;43.582;1.456;2023-04-03T18:24:34;100067.81;;;17.49;63.64
73821;BME280;62150;43.582;1.456;2023-04-03T18:27:06;100069.94;;;18.30;59.36
73821;BME280;62150;43.582;1.456;2023-04-03T18:29:37;100067.28;;;18.66;57.41
73821;BME280;62150;43.582;1.456;2023-04-03T18:32:07;100073.06;;;18.22;60.11
73821;BME280;62150;43.582;1.456;2023-04-03T18:34:36;100078.41;;;17.33;69.25
73821;BME280;62150;43.582;1.456;2023-04-03T18:37:04;100076.09;;;17.80;65.78
73821;BME280;62150;43.582;1.456;2023-04-03T18:39:32;100078.06;;;18.25;62.35
73821;BME280;62150;43.582;1.456;2023-04-03T18:42:05;100081.41;;;18.15;62.99
73821;BME280;62150;43.582;1.456;2023-04-03T18:44:35;100078.66;;;18.29;65.32
73821;BME280;62150;43.582;1.456;2023-04-03T18:47:03;100079.53;;;18.17;64.96
73821;BME280;62150;43.582;1.456;2023-04-03T18:49:32;100091.28;;;16.97;77.57
73821;BME280;62150;43.582;1.456;2023-04-03T18:52:00;100086.09;;;17.48;74.14
73821;BME280;62150;43.582;1.456;2023-04-03T18:54:28;100087.34;;;17.42;74.14
73821;BME280;62150;43.582;1.456;2023-04-03T18:56:58;100093.72;;;16.73;83.01
73821;BME280;62150;43.582;1.456;2023-04-03T18:59:26;100092.94;;;16.98;81.29
73821;BME280;62150;43.582;1.456;2023-04-03T19:01:54;100093.25;;;17.06;80.31
73821;BME280;62150;43.582;1.456;2023-04-03T19:04:22;100095.84;;;17.06;81.66
73821;BME280;62150;43.582;1.456;2023-04-03T19:06:50;100098.22;;;16.57;87.20
73821;BME280;62150;43.582;1.456;2023-04-03T19:09:18;100090.03;;;17.40;80.25
73821;BME280;62150;43.582;1.456;2023-04-03T19:11:46;100098.47;;;16.66;87.07